Time;durP1;ratioP1;P1;durP2;ratioP2;P2;SDS_P1;SDS_P2;PMS_P1;PMS_P2;Temp;Humidity;BMP_temperature;BMP_pressure;BME280_temperature;BME280_humidity;BME280_pressure;Samples;Min_cycle;Max_cycle;Signal;HPM_P1;HPM_P2
2021/12/31 00:03:10;;;;;;;16.45;11.18;;;;;;;3.53;100.00;100788.56;10421012;28;20052;-78
2021/12/31 00:08:11;;;;;;;16.23;10.85;;;;;;;2.81;100.00;100652.03;10419821;28;20399;-78
2021/12/31 00:13:11;;;;;;;14.15;10.57;;;;;;;3.69;100.00;100810.16;10419538;28;20033;-78
2021/12/31 00:18:12;;;;;;;16.33;11.10;;;;;;;2.69;100.00;100631.00;10420642;28;20041;-78
2021/12/31 00:23:15;;;;;;;14.80;10.50;;;;;;;3.46;100.00;100748.78;10419326;28;20060;-79
2021/12/31 00:28:16;;;;;;;16.50;10.40;;;;;;;3.70;100.00;100792.59;10419851;28;20414;-78
2021/12/31 00:33:17;;;;;;;16.20;11.57;;;;;;;1.89;100.00;100493.47;10420113;28;20045;-78
2021/12/31 00:38:18;;;;;;;16.35;11.40;;;;;;;3.57;100.00;100776.91;10419473;28;20045;-78
2021/12/31 00:43:19;;;;;;;14.48;10.75;;;;;;;2.82;100.00;100633.56;10419386;28;20069;-78
2021/12/31 00:48:20;;;;;;;16.38;11.23;;;;;;;3.07;100.00;100656.22;10418808;28;20069;-78
2021/12/31 00:53:21;;;;;;;16.25;10.48;;;;;;;3.70;100.00;100742.69;10416198;28;20424;-78
2021/12/31 00:58:22;;;;;;;15.40;10.70;;;;;;;3.76;100.00;100758.00;10418684;28;20409;-78
2021/12/31 01:03:23;;;;;;;15.98;10.32;;;;;;;3.49;100.00;100716.22;10418386;28;20046;-78
2021/12/31 01:08:24;;;;;;;15.52;10.25;;;;;;;3.39;100.00;100703.75;10417258;28;20034;-78
2021/12/31 01:13:33;;;;;;;18.08;9.88;;;;;;;3.83;100.00;100765.31;10417878;28;20045;-78
2021/12/31 01:23:53;;;;;;;15.23;10.13;;;;;;;3.56;100.00;100712.16;10417917;28;20061;-78
2021/12/31 01:28:54;;;;;;;19.65;11.38;;;;;;;3.80;100.00;100752.41;10416938;28;20188;-78
2021/12/31 01:33:54;;;;;;;16.40;10.98;;;;;;;3.53;100.00;100692.25;10417438;28;20137;-78
2021/12/31 01:38:55;;;;;;;18.98;11.60;;;;;;;3.10;100.00;100645.50;10417176;28;20042;-77
2021/12/31 01:44:03;;;;;;;16.98;10.40;;;;;;;2.74;100.00;100570.31;10416834;28;20053;-78
2021/12/31 01:49:17;;;;;;;24.20;10.38;;;;;;;3.39;100.00;100674.88;10416064;28;20418;-78
2021/12/31 01:54:18;;;;;;;19.03;10.97;;;;;;;3.72;100.00;100733.75;10416989;28;20123;-77
2021/12/31 01:59:19;;;;;;;14.50;10.25;;;;;;;3.74;100.00;100731.84;10415751;28;20069;-78
2021/12/31 02:04:20;;;;;;;17.02;11.02;;;;;;;3.30;100.00;100653.72;10416168;28;20116;-79
2021/12/31 02:09:21;;;;;;;19.27;10.75;;;;;;;2.63;100.00;100559.75;10416512;28;20045;-78
2021/12/31 02:14:24;;;;;;;15.85;9.63;;;;;;;3.61;100.00;100726.63;10416191;28;20132;-78
2021/12/31 02:19:28;;;;;;;18.05;9.93;;;;;;;3.86;100.00;100766.88;10415554;28;20119;-78
2021/12/31 02:24:30;;;;;;;21.30;10.82;;;;;;;3.70;100.00;100727.75;10414531;28;20060;-78
2021/12/31 02:29:31;;;;;;;17.13;9.80;;;;;;;3.07;100.00;100616.88;10415421;28;20072;-77
2021/12/31 02:34:32;;;;;;;16.80;9.65;;;;;;;2.86;100.00;100592.19;10414464;28;20039;-77
2021/12/31 02:39:38;;;;;;;14.15;9.65;;;;;;;3.89;100.00;100761.41;10415353;28;20497;-78
2021/12/31 02:44:40;;;;;;;17.98;10.00;;;;;;;3.83;100.00;100751.34;10414562;28;20037;-78
2021/12/31 02:49:44;;;;;;;19.27;10.05;;;;;;;3.83;100.00;100756.59;10414908;28;20049;-78
2021/12/31 02:54:49;;;;;;;19.75;10.32;;;;;;;3.74;100.00;100747.63;10415132;28;20052;-77
2021/12/31 02:59:50;;;;;;;14.70;9.45;;;;;;;3.76;100.00;100758.00;10414795;28;20051;-78
2021/12/31 03:04:55;;;;;;;18.85;9.88;;;;;;;3.71;100.00;100741.72;10413149;28;20029;-78
2021/12/31 03:09:58;;;;;;;18.38;10.15;;;;;;;3.32;100.00;100694.66;10413723;28;20049;-78
2021/12/31 03:14:59;;;;;;;20.38;10.10;;;;;;;3.11;100.00;100649.81;10413435;28;20037;-78
2021/12/31 03:21:05;;;;;;;21.05;10.77;;;;;;;3.78;100.00;100759.56;10412885;28;20034;-78
2021/12/31 03:25:30;;;;;;;18.48;10.75;;;;;;;3.65;100.00;100738.63;10416869;28;20065;-78
2021/12/31 03:30:31;;;;;;;25.17;9.90;;;;;;;2.80;100.00;100593.47;10413428;28;20390;-77
2021/12/31 03:35:32;;;;;;;26.30;11.65;;;;;;;3.26;100.00;100668.00;10413363;28;20171;-78
2021/12/31 03:40:33;;;;;;;20.10;11.07;;;;;;;3.58;100.00;100716.38;10413015;28;20041;-78
2021/12/31 03:45:35;;;;;;;19.83;11.45;;;;;;;3.41;100.00;100686.13;10413143;28;20048;-78
2021/12/31 03:50:36;;;;;;;24.27;12.65;;;;;;;3.63;100.00;100748.41;10412250;28;20172;-78
2021/12/31 03:55:37;;;;;;;25.35;12.40;;;;;;;3.51;100.00;100723.03;10413492;28;20108;-78
2021/12/31 04:00:39;;;;;;;24.02;12.20;;;;;;;3.66;100.00;100752.59;10412541;28;20134;-78
2021/12/31 04:05:42;;;;;;;21.05;12.38;;;;;;;3.84;100.00;100777.50;10412032;28;20037;-78
2021/12/31 04:10:43;;;;;;;22.65;11.43;;;;;;;3.24;100.00;100683.88;10412728;28;20138;-78
2021/12/31 04:15:44;;;;;;;26.05;12.13;;;;;;;3.87;100.00;100793.03;10413279;28;20048;-78
2021/12/31 04:20:46;;;;;;;23.02;11.85;;;;;;;3.42;100.00;100708.78;10412506;28;20069;-77
2021/12/31 04:25:46;;;;;;;21.88;11.80;;;;;;;3.07;100.00;100644.91;10410534;28;20084;-78
2021/12/31 04:30:48;;;;;;;25.05;10.85;;;;;;;3.69;100.00;100751.53;10392115;28;20073;-78
2021/12/31 04:35:49;;;;;;;21.88;11.20;;;;;;;3.81;100.00;100777.72;10373510;28;20050;-78
2021/12/31 04:40:49;;;;;;;20.92;11.35;;;;;;;3.41;99.61;100704.50;10379015;28;20501;-77
2021/12/31 04:45:50;;;;;;;21.73;11.25;;;;;;;3.84;99.48;100781.91;10380748;28;20052;-77
2021/12/31 04:50:51;;;;;;;24.02;12.13;;;;;;;2.16;99.02;100533.41;10418225;28;20045;-78
2021/12/31 04:55:52;;;;;;;21.58;10.73;;;;;;;3.82;99.60;100807.47;10418132;28;20048;-78
2021/12/31 05:00:53;;;;;;;23.83;11.30;;;;;;;3.80;99.28;100801.47;10418618;28;20517;-77
2021/12/31 05:05:54;;;;;;;25.85;11.30;;;;;;;3.79;99.20;100813.78;10417888;28;20061;-77
2021/12/31 05:10:55;;;;;;;18.23;10.30;;;;;;;2.39;98.62;100578.94;10418701;28;20061;-77
2021/12/31 05:16:01;;;;;;;22.50;10.43;;;;;;;3.36;98.44;100745.16;10416055;28;20045;-77
2021/12/31 05:21:02;;;;;;;20.33;10.45;;;;;;;3.47;98.67;100758.38;10417802;28;20147;-77
2021/12/31 05:26:03;;;;;;;23.90;10.32;;;;;;;3.91;98.32;100832.22;10417548;28;20132;-77
2021/12/31 05:31:04;;;;;;;20.08;10.60;;;;;;;3.78;97.88;100800.78;10416061;28;20038;-78
2021/12/31 05:36:04;;;;;;;22.08;10.82;;;;;;;3.91;97.77;100817.28;10416646;28;20260;-77
2021/12/31 05:41:06;;;;;;;20.88;9.90;;;;;;;3.73;98.43;100797.63;10413360;28;20140;-73
2021/12/31 05:46:07;;;;;;;21.85;9.90;;;;;;;3.83;98.19;100809.16;10443488;28;20065;-71
2021/12/31 05:51:08;;;;;;;23.88;9.55;;;;;;;2.28;97.98;100577.09;10457758;28;20054;-74
2021/12/31 05:56:08;;;;;;;20.55;9.77;;;;;;;2.85;97.90;100667.47;10411051;28;20045;-78
2021/12/31 06:01:09;;;;;;;19.40;9.10;;;;;;;2.18;97.84;100546.41;10443845;28;20056;-78
2021/12/31 06:06:10;;;;;;;20.20;9.48;;;;;;;2.93;98.21;100659.88;10439736;28;20029;-76
2021/12/31 06:11:11;;;;;;;18.40;9.80;;;;;;;2.76;97.34;100638.44;10421322;28;20051;-71
2021/12/31 06:16:12;;;;;;;20.35;9.68;;;;;;;3.91;97.45;100830.44;10449888;28;20045;-72
2021/12/31 06:21:13;;;;;;;24.75;9.50;;;;;;;3.77;97.82;100813.06;10428006;28;20065;-72
2021/12/31 06:26:14;;;;;;;24.67;10.77;;;;;;;2.87;97.00;100651.59;10414112;28;20132;-77
2021/12/31 06:31:16;;;;;;;23.00;11.13;;;;;;;2.92;96.66;100666.06;10424238;28;20053;-75
2021/12/31 06:36:17;;;;;;;21.88;10.55;;;;;;;3.78;97.12;100808.66;10443537;28;20037;-76
2021/12/31 06:41:20;;;;;;;20.60;9.55;;;;;;;4.00;96.43;100818.41;10370394;28;20053;-75
2021/12/31 06:46:21;;;;;;;19.90;9.20;;;;;;;3.53;96.03;100736.91;10314878;28;20041;-76
2021/12/31 06:51:22;;;;;;;18.50;9.55;;;;;;;2.96;95.96;100661.41;10411496;28;20049;-74
2021/12/31 06:56:23;;;;;;;25.95;10.32;;;;;;;3.25;96.00;100689.97;10408941;28;20409;-74
2021/12/31 07:01:24;;;;;;;26.17;10.55;;;;;;;2.96;95.27;100632.53;10409250;28;20046;-74
2021/12/31 07:06:25;;;;;;;23.50;11.13;;;;;;;3.39;95.80;100700.31;10409917;28;20045;-74
2021/12/31 07:11:26;;;;;;;21.13;11.15;;;;;;;4.19;95.53;100815.22;10410212;28;20041;-74
2021/12/31 07:16:27;;;;;;;23.17;11.38;;;;;;;3.00;95.33;100607.78;10411928;28;20053;-74
2021/12/31 07:21:28;;;;;;;26.25;11.57;;;;;;;4.45;95.08;100824.63;10409045;28;20502;-74
2021/12/31 07:26:28;;;;;;;25.83;12.05;;;;;;;4.38;94.93;100814.72;10410613;28;20468;-74
2021/12/31 07:31:29;;;;;;;21.70;10.90;;;;;;;3.48;94.63;100660.22;10412588;28;20043;-74
2021/12/31 07:36:30;;;;;;;21.77;11.43;;;;;;;3.65;95.15;100690.50;10411061;28;20091;-74
2021/12/31 07:41:31;;;;;;;22.10;10.55;;;;;;;3.91;94.51;100721.84;10411780;28;20076;-74
2021/12/31 07:46:33;;;;;;;21.35;10.32;;;;;;;4.22;94.67;100771.16;10410902;28;20091;-74
2021/12/31 07:51:34;;;;;;;20.67;11.13;;;;;;;3.92;94.73;100691.97;10406273;28;20172;-74
2021/12/31 07:56:35;;;;;;;23.83;11.15;;;;;;;4.29;94.32;100747.84;10409751;28;20505;-74
2021/12/31 08:01:35;;;;;;;18.10;9.20;;;;;;;3.45;93.84;100600.03;10403706;28;20474;-76
2021/12/31 08:06:36;;;;;;;25.83;11.13;;;;;;;4.22;93.70;100712.44;10364858;28;20045;-75
2021/12/31 08:11:37;;;;;;;26.02;11.05;;;;;;;3.68;93.78;100606.19;10402307;28;20042;-75
2021/12/31 08:16:38;;;;;;;26.02;10.88;;;;;;;4.44;93.35;100706.38;10406813;28;20045;-75
2021/12/31 08:21:39;;;;;;;23.70;10.32;;;;;;;3.80;92.65;100575.47;10411099;28;20049;-75
2021/12/31 08:26:41;;;;;;;23.52;10.10;;;;;;;3.88;91.80;100565.22;10416574;28;20049;-75
2021/12/31 08:31:42;;;;;;;24.30;11.32;;;;;;;5.15;92.13;100755.13;10418812;28;20041;-74
2021/12/31 08:36:43;;;;;;;20.63;10.73;;;;;;;4.74;91.83;100667.13;10416709;28;20044;-74
2021/12/31 08:41:43;;;;;;;19.70;9.93;;;;;;;4.19;91.95;100558.41;10409639;28;20052;-74
2021/12/31 08:46:44;;;;;;;20.00;10.60;;;;;;;5.32;91.47;100752.91;10406173;28;20057;-74
2021/12/31 08:51:46;;;;;;;22.77;10.90;;;;;;;4.11;91.39;100560.78;10429160;28;20045;-75
2021/12/31 08:56:47;;;;;;;26.58;10.23;;;;;;;4.82;90.63;100671.78;10452404;28;20048;-74
2021/12/31 09:01:48;;;;;;;20.55;10.35;;;;;;;3.91;90.15;100501.06;10451298;28;20071;-74
2021/12/31 09:06:49;;;;;;;20.65;10.85;;;;;;;4.52;90.39;100570.66;10448851;28;20057;-74
2021/12/31 09:11:50;;;;;;;20.08;9.90;;;;;;;4.98;89.58;100637.97;10430609;28;20106;-74
2021/12/31 09:16:51;;;;;;;18.67;9.88;;;;;;;5.37;89.75;100663.81;10456657;28;20037;-74
2021/12/31 09:21:55;;;;;;;21.27;10.20;;;;;;;5.54;88.38;100694.06;10457376;28;20059;-74
2021/12/31 09:26:56;;;;;;;19.47;9.90;;;;;;;4.54;88.81;100492.41;10457872;28;20068;-74
2021/12/31 09:31:57;;;;;;;20.35;10.93;;;;;;;5.44;88.57;100636.00;10416211;28;20319;-74
2021/12/31 09:36:58;;;;;;;22.05;11.20;;;;;;;4.23;87.92;100420.47;10381202;28;20481;-74
2021/12/31 09:41:58;;;;;;;20.90;10.07;;;;;;;3.26;87.49;100264.56;10375167;28;20480;-74
2021/12/31 09:47:00;;;;;;;22.45;11.10;;;;;;;5.30;88.63;100602.91;10374108;28;20387;-74
2021/12/31 09:52:02;;;;;;;22.42;10.80;;;;;;;5.55;88.45;100677.28;10377021;28;20543;-74
2021/12/31 09:57:04;;;;;;;23.85;11.90;;;;;;;5.06;87.25;100620.75;10374566;28;20092;-74
2021/12/31 10:02:05;;;;;;;22.77;11.50;;;;;;;5.13;88.40;100635.06;10373832;28;20394;-74
2021/12/31 10:07:10;;;;;;;22.75;11.23;;;;;;;5.17;88.33;100628.56;10376768;28;20049;-74
2021/12/31 10:12:11;;;;;;;22.83;10.80;;;;;;;5.30;88.48;100644.22;10380882;28;20038;-75
2021/12/31 10:17:12;;;;;;;22.52;10.77;;;;;;;4.02;87.50;100417.78;10414055;28;20037;-74
2021/12/31 10:22:19;;;;;;;25.73;12.27;;;;;;;4.34;87.70;100486.16;10410135;28;20522;-74
2021/12/31 10:27:20;;;;;;;23.73;12.15;;;;;;;5.21;87.62;100632.66;10390501;28;20133;-74
2021/12/31 10:32:22;;;;;;;23.42;11.98;;;;;;;5.24;87.56;100613.97;10372550;28;20498;-74
2021/12/31 10:37:26;;;;;;;28.48;12.00;;;;;;;5.28;87.51;100582.94;10403871;28;20056;-74
2021/12/31 10:42:32;;;;;;;20.13;11.05;;;;;;;5.60;87.22;100609.22;10410359;28;20040;-74
2021/12/31 10:47:37;;;;;;;24.00;12.25;;;;;;;5.30;86.85;100586.28;10403459;28;20144;-74
2021/12/31 10:53:12;;;;;;;21.98;12.20;;;;;;;5.63;86.62;100617.69;10372235;28;20034;-75
2021/12/31 10:58:14;;;;;;;22.83;11.93;;;;;;;4.77;87.01;100482.63;10370489;28;20048;-74
2021/12/31 11:03:16;;;;;;;23.45;11.75;;;;;;;4.76;87.48;100472.25;10379827;28;20422;-74
2021/12/31 11:08:17;;;;;;;23.48;12.50;;;;;;;5.60;87.36;100591.59;10394369;28;20527;-73
2021/12/31 11:13:21;;;;;;;32.42;17.58;;;;;;;5.70;86.90;100612.72;10398975;28;20053;-73
2021/12/31 11:18:25;;;;;;;32.55;14.90;;;;;;;4.91;87.23;100486.78;10405230;28;20137;-76
2021/12/31 11:23:29;;;;;;;21.50;11.93;;;;;;;4.13;86.77;100332.78;10407392;28;20489;-72
2021/12/31 11:28:32;;;;;;;24.20;12.30;;;;;;;5.13;86.63;100532.38;10405534;28;20518;-72
2021/12/31 11:33:32;;;;;;;27.90;12.95;;;;;;;5.06;87.14;100523.31;10399527;28;20046;-73
2021/12/31 11:38:34;;;;;;;23.17;12.98;;;;;;;5.50;86.90;100603.84;10404343;28;20045;-73
2021/12/31 11:43:41;;;;;;;31.33;15.20;;;;;;;5.51;87.48;100578.38;10420616;28;20056;-74
2021/12/31 11:48:48;;;;;;;23.08;12.73;;;;;;;5.75;86.48;100600.00;10412975;28;20061;-74
2021/12/31 11:54:00;;;;;;;22.17;12.43;;;;;;;4.98;86.63;100485.28;10419604;28;20140;-74
2021/12/31 11:59:21;;;;;;;25.48;13.02;;;;;;;4.85;86.51;100479.38;10437796;28;20110;-74
2021/12/31 12:04:31;;;;;;;25.98;13.20;;;;;;;5.45;86.79;100603.44;10439946;28;20048;-73
2021/12/31 12:09:37;;;;;;;21.83;12.35;;;;;;;3.71;87.24;100352.88;10418739;28;20040;-74
2021/12/31 12:14:53;;;;;;;23.92;12.93;;;;;;;5.04;88.08;100579.56;10432475;28;20080;-73
2021/12/31 12:20:02;;;;;;;24.90;13.43;;;;;;;4.54;88.15;100481.06;10429470;28;20048;-75
2021/12/31 12:25:15;;;;;;;23.92;13.02;;;;;;;4.47;87.33;100459.69;10428880;28;20528;-75
2021/12/31 12:30:17;;;;;;;25.58;14.10;;;;;;;4.20;87.70;100438.28;10436069;28;20065;-74
2021/12/31 12:35:24;;;;;;;31.42;16.25;;;;;;;5.13;88.03;100611.38;10437081;28;20045;-75
2021/12/31 12:40:35;;;;;;;23.80;13.18;;;;;;;5.15;88.23;100614.72;10438295;28;20088;-73
2021/12/31 12:45:44;;;;;;;23.55;13.30;;;;;;;4.49;88.32;100513.03;10434471;28;20597;-73
2021/12/31 12:50:50;;;;;;;24.88;13.65;;;;;;;4.54;88.45;100579.25;10436524;28;20132;-74
2021/12/31 12:56:07;;;;;;;28.85;12.93;;;;;;;4.27;88.83;100532.31;10436757;28;20118;-74
2021/12/31 13:01:08;;;;;;;29.75;14.30;;;;;;;4.31;89.14;100567.13;10434400;28;20060;-73
2021/12/31 13:06:09;;;;;;;25.60;13.52;;;;;;;4.25;89.34;100591.28;10432652;28;20092;-73
2021/12/31 13:11:11;;;;;;;60.15;24.92;;;;;;;4.08;89.64;100577.66;10417935;28;20045;-74
2021/12/31 13:16:13;;;;;;;31.10;15.23;;;;;;;3.04;89.86;100422.88;10413068;28;20065;-73
2021/12/31 13:21:14;;;;;;;36.20;17.52;;;;;;;4.19;90.19;100610.13;10417036;28;20050;-73
2021/12/31 13:26:17;;;;;;;29.00;14.52;;;;;;;3.86;90.41;100586.38;10394497;28;20042;-73
2021/12/31 13:31:39;;;;;;;33.93;16.40;;;;;;;4.06;90.51;100618.97;10376556;28;20133;-71
2021/12/31 13:36:52;;;;;;;32.33;15.88;;;;;;;3.30;90.42;100497.00;10375591;28;20148;-78
2021/12/31 13:41:57;;;;;;;63.25;24.92;;;;;;;3.36;90.98;100533.31;10376524;28;20042;-73
2021/12/31 13:47:13;;;;;;;29.83;13.77;;;;;;;3.67;91.38;100568.53;10375532;28;20576;-72
2021/12/31 13:52:21;;;;;;;36.15;18.65;;;;;;;3.89;91.71;100615.06;10394533;28;20063;-73
2021/12/31 13:57:24;;;;;;;32.17;15.35;;;;;;;3.18;90.76;100496.16;10400206;28;20107;-73
2021/12/31 14:02:28;;;;;;;27.02;13.38;;;;;;;3.21;91.13;100521.34;10426490;28;20388;-73
2021/12/31 14:07:42;;;;;;;37.33;18.02;;;;;;;3.57;91.93;100591.22;10399052;28;20049;-73
2021/12/31 14:12:53;;;;;;;34.08;18.63;;;;;;;3.73;91.67;100617.16;10408344;28;20045;-74
2021/12/31 14:17:55;;;;;;;29.13;13.95;;;;;;;3.58;91.73;100618.34;10393850;28;20041;-74
2021/12/31 14:22:56;;;;;;;26.25;12.90;;;;;;;3.32;92.51;100581.75;10415361;28;20065;-71
2021/12/31 14:27:58;;;;;;;25.35;12.80;;;;;;;3.09;92.53;100572.97;10404053;28;20128;-73
2021/12/31 14:33:01;;;;;;;27.27;13.70;;;;;;;3.20;92.68;100596.66;10401667;28;20042;-74
2021/12/31 14:38:04;;;;;;;30.73;15.02;;;;;;;2.62;92.58;100503.84;10401558;28;20037;-75
2021/12/31 14:43:05;;;;;;;26.13;13.50;;;;;;;3.32;92.69;100607.16;10405821;28;20042;-72
2021/12/31 14:48:06;;;;;;;24.25;13.32;;;;;;;3.24;93.04;100609.53;10424255;28;20037;-72
2021/12/31 14:53:09;;;;;;;28.50;13.52;;;;;;;2.67;93.17;100522.72;10406729;28;20061;-74
2021/12/31 14:58:10;;;;;;;26.23;13.45;;;;;;;2.05;93.18;100428.53;10402377;28;20141;-74
2021/12/31 15:03:11;;;;;;;27.92;13.65;;;;;;;3.17;93.24;100603.88;10398428;28;20614;-74
2021/12/31 15:08:12;;;;;;;29.23;15.73;;;;;;;1.76;93.11;100389.53;10416101;28;20067;-74
2021/12/31 15:13:12;;;;;;;28.63;14.57;;;;;;;2.33;93.37;100471.06;10431138;28;20072;-73
2021/12/31 15:18:13;;;;;;;25.80;13.15;;;;;;;2.02;93.40;100418.25;10404082;28;20075;-73
2021/12/31 15:23:14;;;;;;;28.95;14.48;;;;;;;2.82;94.13;100586.34;10411759;28;20089;-73
2021/12/31 15:28:15;;;;;;;26.90;13.05;;;;;;;2.71;94.29;100555.63;10411700;28;20104;-73
2021/12/31 15:33:16;;;;;;;29.05;14.95;;;;;;;2.76;94.45;100580.72;10412226;28;20080;-73
2021/12/31 15:38:17;;;;;;;28.17;14.48;;;;;;;2.24;94.03;100520.59;10411780;28;20564;-74
2021/12/31 15:43:18;;;;;;;28.42;14.48;;;;;;;2.69;94.70;100610.03;10405526;28;20073;-75
2021/12/31 15:48:19;;;;;;;27.42;15.00;;;;;;;1.36;94.62;100408.09;10424485;28;20127;-74
2021/12/31 15:53:21;;;;;;;25.45;15.05;;;;;;;2.33;94.77;100584.63;10422310;28;20048;-75
2021/12/31 15:58:22;;;;;;;28.77;14.55;;;;;;;2.39;95.42;100609.56;10416824;28;20033;-75
2021/12/31 16:03:22;;;;;;;31.45;14.88;;;;;;;1.35;95.06;100440.44;10415977;28;20049;-74
2021/12/31 16:08:25;;;;;;;27.13;15.20;;;;;;;1.08;95.60;100405.72;10427310;28;20029;-76
2021/12/31 16:13:27;;;;;;;29.48;15.18;;;;;;;0.20;95.68;100286.16;10427434;28;20448;-74
2021/12/31 16:18:32;;;;;;;28.15;15.00;;;;;;;1.62;95.86;100510.16;10412550;28;20060;-76
2021/12/31 16:23:32;;;;;;;;;;;;;;;2.46;94.51;100605.59;10398579;28;20061;-76
2021/12/31 16:28:33;;;;;;;33.47;16.00;;;;;;;2.03;95.18;100535.22;10421054;28;19925;-75
2021/12/31 16:33:34;;;;;;;27.90;14.88;;;;;;;1.98;95.38;100532.94;10418622;28;20401;-76
2021/12/31 16:38:35;;;;;;;33.22;16.45;;;;;;;2.38;95.93;100581.69;10408471;28;20045;-75
2021/12/31 16:43:36;;;;;;;30.65;15.43;;;;;;;2.45;96.07;100585.53;10420397;28;20056;-79
2021/12/31 16:48:37;;;;;;;32.13;15.48;;;;;;;1.63;95.95;100459.44;10394665;28;20037;-74
2021/12/31 16:53:38;;;;;;;33.05;15.90;;;;;;;2.59;96.27;100608.16;10402286;28;20053;-76
2021/12/31 16:58:39;;;;;;;28.73;16.25;;;;;;;2.59;96.00;100606.38;10402644;28;20681;-76
2021/12/31 17:03:40;;;;;;;34.28;17.17;;;;;;;2.65;96.27;100592.81;10421115;28;20056;-74
2021/12/31 17:08:41;;;;;;;32.22;17.48;;;;;;;2.12;96.37;100515.38;10420972;28;20052;-74
2021/12/31 17:13:42;;;;;;;33.60;17.83;;;;;;;2.25;96.18;100517.03;10422868;28;20037;-76
2021/12/31 17:18:43;;;;;;;33.40;17.20;;;;;;;2.50;96.40;100567.69;10405704;28;20051;-74
2021/12/31 17:23:44;;;;;;;31.52;17.05;;;;;;;1.47;97.01;100411.75;10415259;28;20072;-76
2021/12/31 17:28:45;;;;;;;36.13;17.38;;;;;;;2.04;97.06;100487.97;10424712;28;20464;-74
2021/12/31 17:33:46;;;;;;;34.47;17.23;;;;;;;1.55;96.85;100405.00;10431338;28;20049;-75
2021/12/31 17:38:47;;;;;;;35.47;17.45;;;;;;;2.65;96.92;100573.63;10408507;28;20500;-75
2021/12/31 17:43:48;;;;;;;30.48;17.67;;;;;;;1.55;97.13;100388.44;10416409;28;20052;-75
2021/12/31 17:48:49;;;;;;;34.65;16.90;;;;;;;2.42;96.94;100525.44;10416254;28;20037;-75
2021/12/31 17:53:50;;;;;;;39.08;21.60;;;;;;;1.41;96.95;100363.28;10415915;28;20485;-75
2021/12/31 17:58:51;;;;;;;33.03;17.27;;;;;;;2.71;97.14;100578.41;10415486;28;20099;-75
2021/12/31 18:03:51;;;;;;;36.53;17.40;;;;;;;2.65;97.41;100566.56;10414199;28;20509;-75
2021/12/31 18:08:52;;;;;;;31.73;17.20;;;;;;;2.64;97.00;100572.78;10412728;28;20038;-74
2021/12/31 18:13:54;;;;;;;37.30;16.35;;;;;;;1.60;97.20;100412.53;10411127;28;20080;-74
2021/12/31 18:18:59;;;;;;;46.35;20.90;;;;;;;1.47;97.54;100390.81;10416385;28;20045;-76
2021/12/31 18:24:00;;;;;;;36.90;17.42;;;;;;;2.35;97.44;100558.31;10415807;28;20061;-74
2021/12/31 18:29:04;;;;;;;33.30;17.00;;;;;;;2.12;97.77;100500.50;10403717;28;20549;-74
2021/12/31 18:34:04;;;;;;;35.80;16.93;;;;;;;1.95;97.43;100470.28;10374297;28;20442;-74
2021/12/31 18:39:05;;;;;;;35.42;17.42;;;;;;;2.51;98.31;100564.09;10373671;28;20057;-73
2021/12/31 18:44:06;;;;;;;35.65;17.55;;;;;;;1.69;98.28;100405.81;10373898;28;20096;-72
2021/12/31 18:49:17;;;;;;;38.15;18.10;;;;;;;2.29;97.86;100500.13;10406426;28;20616;-73
2021/12/31 18:54:22;;;;;;;37.50;16.92;;;;;;;1.72;97.91;100390.72;10408854;28;20513;-73
2021/12/31 18:59:23;;;;;;;39.72;18.92;;;;;;;2.42;98.15;100507.09;10400096;28;20040;-73
2021/12/31 19:04:24;;;;;;;36.58;17.33;;;;;;;2.52;98.38;100521.22;10468521;28;20037;-75
2021/12/31 19:09:25;;;;;;;35.00;17.25;;;;;;;1.82;98.19;100410.06;10428320;28;20045;-76
2021/12/31 19:14:26;;;;;;;38.70;18.23;;;;;;;2.31;97.93;100465.13;10427074;28;20048;-75
2021/12/31 19:19:26;;;;;;;38.80;19.50;;;;;;;2.03;98.74;100425.16;10426518;28;20056;-76
2021/12/31 19:24:27;;;;;;;33.30;17.80;;;;;;;2.41;98.80;100487.91;10392116;28;20521;-75
2021/12/31 19:29:30;;;;;;;45.17;23.30;;;;;;;2.01;98.63;100430.53;10413291;28;20068;-76
2021/12/31 19:34:31;;;;;;;37.85;17.73;;;;;;;0.74;98.38;100217.13;10397759;28;20045;-75
2021/12/31 19:39:32;;;;;;;45.55;19.88;;;;;;;2.17;98.52;100464.31;10372833;28;20046;-76
2021/12/31 19:44:33;;;;;;;41.15;20.20;;;;;;;1.41;98.81;100339.72;10369980;28;20045;-75
2021/12/31 19:49:34;;;;;;;39.20;19.13;;;;;;;1.93;99.25;100445.13;10365730;28;20049;-73
2021/12/31 19:54:34;;;;;;;46.67;17.98;;;;;;;1.30;98.86;100334.41;10413640;28;20052;-78
2021/12/31 19:59:35;;;;;;;46.83;19.33;;;;;;;0.84;99.23;100257.38;10419324;28;20140;-73
2021/12/31 20:04:36;;;;;;;44.22;20.20;;;;;;;1.34;99.26;100322.75;10435720;28;20129;-74
2021/12/31 20:09:37;;;;;;;54.28;19.58;;;;;;;0.78;98.88;100210.75;10409451;28;20078;-74
2021/12/31 20:14:38;;;;;;;51.13;18.33;;;;;;;2.31;99.19;100454.63;10391676;28;20045;-73
2021/12/31 20:19:40;;;;;;;53.20;19.17;;;;;;;1.86;99.52;100386.28;10420298;28;20042;-73
2021/12/31 20:24:41;;;;;;;41.83;19.60;;;;;;;2.34;100.00;100475.38;10403722;28;20057;-73
2021/12/31 20:29:42;;;;;;;35.80;18.85;;;;;;;2.15;99.72;100403.31;10389715;28;20462;-73
2021/12/31 20:34:43;;;;;;;41.70;17.30;;;;;;;1.04;99.52;100240.25;10402297;28;20136;-75
2021/12/31 20:39:44;;;;;;;37.25;17.25;;;;;;;2.31;100.00;100447.59;10461598;28;20515;-76
2021/12/31 20:44:46;;;;;;;44.80;18.20;;;;;;;2.20;100.00;100405.59;10448171;28;20045;-78
2021/12/31 20:49:48;;;;;;;50.50;17.90;;;;;;;2.18;100.00;100397.00;10415159;28;20048;-77
2021/12/31 20:54:49;;;;;;;92.72;17.25;;;;;;;1.89;100.00;100342.34;10419046;28;20045;-77
2021/12/31 20:59:50;;;;;;;56.00;17.55;;;;;;;2.34;100.00;100420.31;10414370;28;20413;-77
2021/12/31 21:04:50;;;;;;;52.67;16.95;;;;;;;2.49;100.00;100434.91;10398411;28;20052;-77
2021/12/31 21:09:51;;;;;;;70.15;28.27;;;;;;;1.26;100.00;100213.41;10415424;28;20042;-77
2021/12/31 21:14:52;;;;;;;128.65;55.97;;;;;;;1.59;100.00;100275.56;10417384;28;20033;-77
2021/12/31 21:19:56;;;;;;;47.53;19.70;;;;;;;1.22;99.33;100218.97;10397647;28;20127;-77
2021/12/31 21:24:58;;;;;;;71.95;17.13;;;;;;;2.46;100.00;100427.28;10409524;28;20526;-77
2021/12/31 21:29:59;;;;;;;118.90;17.60;;;;;;;2.42;100.00;100417.94;10377259;28;20050;-77
2021/12/31 21:35:00;;;;;;;55.58;16.33;;;;;;;2.28;99.91;100403.25;10377085;28;20037;-77
2021/12/31 21:40:05;;;;;;;113.47;17.05;;;;;;;1.27;99.91;100253.50;10377178;28;20545;-78
2021/12/31 21:45:08;;;;;;;80.53;14.60;;;;;;;1.90;100.00;100395.56;10376542;28;20046;-78
2021/12/31 21:50:11;;;;;;;37.85;14.70;;;;;;;2.05;100.00;100411.00;10374754;28;20413;-77
2021/12/31 21:55:18;;;;;;;118.63;15.35;;;;;;;1.67;100.00;100361.38;10374519;28;20076;-77
2021/12/31 22:00:19;;;;;;;92.90;14.25;;;;;;;1.50;100.00;100331.19;10374627;28;20490;-78
2021/12/31 22:05:21;;;;;;;57.78;13.98;;;;;;;1.74;100.00;100362.63;10375929;28;20044;-78
2021/12/31 22:10:22;;;;;;;55.25;12.60;;;;;;;1.26;100.00;100291.91;10376419;28;20402;-78
2021/12/31 22:15:22;;;;;;;78.18;13.93;;;;;;;1.62;100.00;100352.22;10390583;28;20041;-78
2021/12/31 22:20:23;;;;;;;53.65;12.55;;;;;;;1.94;100.00;100397.84;10375462;28;20070;-78
2021/12/31 22:25:24;;;;;;;134.18;14.73;;;;;;;1.94;100.00;100400.47;10374818;28;20038;-78
2021/12/31 22:30:25;;;;;;;80.28;13.27;;;;;;;1.17;100.00;100284.72;10389891;28;20100;-78
2021/12/31 22:35:26;;;;;;;55.90;12.75;;;;;;;1.37;100.00;100328.59;10374560;28;20046;-78
2021/12/31 22:40:27;;;;;;;66.10;14.50;;;;;;;1.95;100.00;100406.56;10373503;28;20049;-79
2021/12/31 22:45:28;;;;;;;95.05;13.45;;;;;;;1.77;100.00;100367.66;10374435;28;20488;-78
2021/12/31 22:50:29;;;;;;;121.72;14.32;;;;;;;1.98;100.00;100390.63;10373981;28;20087;-78
2021/12/31 22:55:30;;;;;;;111.40;15.63;;;;;;;1.07;100.00;100257.53;10382672;28;20041;-78